Time;durP1;ratioP1;P1;durP2;ratioP2;P2;SDS_P1;SDS_P2;PMS_P1;PMS_P2;Temp;Humidity;BMP_temperature;BMP_pressure;BME280_temperature;BME280_humidity;BME280_pressure;Samples;Min_cycle;Max_cycle;Signal;HPM_P1;HPM_P2
2023/02/28 00:02:18;;;;;;;7.55;3.70;;;-0.20;99.90;;;;;;5051476;28;20074;-41
2023/02/28 00:04:44;;;;;;;9.70;3.88;;;-0.20;99.90;;;;;;5051594;28;20029;-41
2023/02/28 00:07:09;;;;;;;11.63;4.28;;;-0.20;99.90;;;;;;5051710;28;20036;-48
2023/02/28 00:09:35;;;;;;;5.50;3.75;;;-0.20;99.90;;;;;;5049173;28;20036;-49
2023/02/28 00:12:10;;;;;;;6.88;3.67;;;-0.20;99.90;;;;;;5051051;28;20029;-48
2023/02/28 00:14:36;;;;;;;7.05;3.25;;;-0.20;99.90;;;;;;5049625;28;20479;-51
2023/02/28 00:17:01;;;;;;;8.82;4.07;;;-0.10;99.90;;;;;;5049890;28;20390;-40
2023/02/28 00:19:27;;;;;;;8.38;4.68;;;-0.20;99.90;;;;;;5051193;28;20031;-40
2023/02/28 00:21:52;;;;;;;8.20;4.50;;;-0.20;99.90;;;;;;5050400;28;20386;-40
2023/02/28 00:24:18;;;;;;;9.20;4.60;;;-0.20;99.90;;;;;;5050460;28;20029;-41
2023/02/28 00:26:43;;;;;;;8.80;4.80;;;-0.20;99.90;;;;;;5050219;28;20502;-48
2023/02/28 00:29:09;;;;;;;7.82;4.60;;;-0.30;99.90;;;;;;5056681;28;20024;-48
2023/02/28 00:31:35;;;;;;;7.78;4.45;;;-0.30;99.90;;;;;;5071121;28;20444;-49
2023/02/28 00:34:00;;;;;;;9.15;4.00;;;-0.30;99.90;;;;;;5070523;28;20125;-49
2023/02/28 00:36:26;;;;;;;7.00;3.70;;;-0.20;99.90;;;;;;5053826;28;20429;-49
2023/02/28 00:38:52;;;;;;;6.50;3.78;;;-0.20;99.90;;;;;;5050509;28;20479;-48
2023/02/28 00:41:17;;;;;;;8.00;3.75;;;-0.20;99.90;;;;;;5050620;28;20044;-51
2023/02/28 00:43:43;;;;;;;11.90;3.63;;;-0.20;99.90;;;;;;5050008;28;20496;-49
2023/02/28 00:46:09;;;;;;;7.78;4.25;;;-0.20;99.90;;;;;;5049849;28;20418;-47
2023/02/28 00:48:35;;;;;;;8.82;3.95;;;-0.30;99.90;;;;;;5049280;28;20024;-50
2023/02/28 00:51:01;;;;;;;6.80;3.80;;;-0.30;99.90;;;;;;5050237;28;20052;-47
2023/02/28 00:53:27;;;;;;;5.97;3.80;;;-0.40;99.90;;;;;;5050310;28;20108;-48
2023/02/28 00:55:53;;;;;;;7.22;4.10;;;-0.40;99.90;;;;;;5050550;28;20096;-49
2023/02/28 00:58:18;;;;;;;6.65;3.63;;;-0.40;99.90;;;;;;5050587;28;20112;-50
2023/02/28 01:00:48;;;;;;;7.20;4.18;;;-0.40;99.90;;;;;;5050485;28;20029;-50
2023/02/28 01:03:15;;;;;;;5.82;3.55;;;-0.40;99.90;;;;;;5050207;28;20051;-49
2023/02/28 01:05:41;;;;;;;8.70;4.00;;;-0.40;99.90;;;;;;5050022;28;20032;-48
2023/02/28 01:08:06;;;;;;;9.77;4.40;;;-0.40;99.90;;;;;;5050262;28;20405;-49
2023/02/28 01:10:32;;;;;;;7.75;4.25;;;-0.40;99.90;;;;;;5050339;28;20017;-49
2023/02/28 01:12:58;;;;;;;8.32;3.97;;;-0.40;99.90;;;;;;5049494;28;20025;-49
2023/02/28 01:15:23;;;;;;;6.18;3.72;;;-0.40;99.90;;;;;;5049839;28;20459;-48
2023/02/28 01:17:49;;;;;;;7.13;3.55;;;-0.30;99.90;;;;;;5049726;28;20025;-49
2023/02/28 01:20:15;;;;;;;7.75;3.92;;;-0.40;99.90;;;;;;5049725;28;20063;-49
2023/02/28 01:22:40;;;;;;;6.93;3.70;;;-0.40;99.90;;;;;;5048149;28;20158;-48
2023/02/28 01:25:06;;;;;;;5.22;3.17;;;-0.40;99.90;;;;;;5049281;28;20033;-48
2023/02/28 01:27:33;;;;;;;8.93;4.05;;;-0.40;99.90;;;;;;5048863;28;20036;-47
2023/02/28 01:29:58;;;;;;;8.35;3.92;;;-0.30;99.90;;;;;;5050140;28;20390;-47
2023/02/28 01:32:24;;;;;;;7.97;3.55;;;-0.30;99.90;;;;;;5049755;28;20040;-47
2023/02/28 01:34:49;;;;;;;7.60;4.05;;;-0.30;99.90;;;;;;5049267;28;20017;-47
2023/02/28 01:37:15;;;;;;;6.55;3.33;;;-0.30;99.90;;;;;;5049643;28;20032;-50
2023/02/28 01:39:40;;;;;;;9.30;4.05;;;-0.30;99.90;;;;;;5050045;28;20465;-48
2023/02/28 01:42:09;;;;;;;7.90;3.90;;;-0.30;99.90;;;;;;5048123;28;20075;-48
2023/02/28 01:44:59;;;;;;;6.80;3.75;;;-0.30;99.90;;;;;;5049213;28;20542;-49
2023/02/28 01:47:41;;;;;;;4.50;3.65;;;-0.20;99.90;;;;;;5047946;28;20025;-46
2023/02/28 01:50:12;;;;;;;8.95;3.70;;;-0.20;99.90;;;;;;5048564;28;20090;-47
2023/02/28 01:52:39;;;;;;;6.00;3.30;;;-0.20;99.90;;;;;;5047537;28;20458;-49
2023/02/28 01:55:06;;;;;;;6.82;4.25;;;-0.30;99.90;;;;;;5049015;28;20158;-47
2023/02/28 01:57:37;;;;;;;9.02;5.38;;;-0.30;99.90;;;;;;5049245;28;20021;-47
2023/02/28 02:00:14;;;;;;;;;;;-0.30;99.90;;;;;;5048445;28;20509;-47
2023/02/28 02:02:43;;;;;;;8.20;4.95;;;-0.30;99.90;;;;;;5048500;28;20445;-48
2023/02/28 02:05:17;;;;;;;12.05;5.10;;;-0.30;99.90;;;;;;5048613;28;20059;-47
2023/02/28 02:07:46;;;;;;;8.48;4.85;;;-0.30;99.90;;;;;;5049353;28;20128;-47
2023/02/28 02:10:28;;;;;;;8.02;5.40;;;-0.30;99.90;;;;;;5049059;28;20029;-47
2023/02/28 02:13:21;;;;;;;10.70;5.57;;;-0.30;99.90;;;;;;5048910;28;20027;-46
2023/02/28 02:16:22;;;;;;;8.95;5.30;;;-0.20;99.90;;;;;;5049329;28;20059;-47
2023/02/28 02:18:59;;;;;;;8.82;4.10;;;-0.20;99.90;;;;;;5046271;28;20502;-47
2023/02/28 02:21:37;;;;;;;9.07;5.35;;;-0.20;99.90;;;;;;5048767;28;20133;-47
2023/02/28 02:24:28;;;;;;;8.65;5.18;;;-0.30;99.90;;;;;;5047097;28;20025;-48
2023/02/28 02:27:18;;;;;;;9.45;5.68;;;-0.30;99.90;;;;;;5048795;28;20450;-48
2023/02/28 02:30:08;;;;;;;9.67;6.10;;;-0.30;99.90;;;;;;5048253;28;20025;-47
2023/02/28 02:32:52;;;;;;;10.20;5.78;;;-0.40;99.90;;;;;;5048549;28;20494;-49
2023/02/28 02:35:39;;;;;;;9.35;5.00;;;-0.30;99.90;;;;;;5048634;28;20017;-48
2023/02/28 02:38:36;;;;;;;8.43;5.00;;;-0.30;99.90;;;;;;5048638;28;20021;-48
2023/02/28 02:41:16;;;;;;;9.63;5.75;;;-0.40;99.90;;;;;;5049233;28;20028;-49
2023/02/28 02:44:10;;;;;;;5.38;4.28;;;-0.40;99.90;;;;;;5048127;28;20124;-47
2023/02/28 02:46:42;;;;;;;11.25;5.43;;;-0.40;99.90;;;;;;5048705;28;20041;-47
2023/02/28 02:49:12;;;;;;;8.15;4.82;;;-0.40;99.90;;;;;;5048812;28;20115;-48
2023/02/28 02:51:40;;;;;;;;;;;-0.40;99.90;;;;;;5047521;28;20025;-47
2023/02/28 02:54:17;;;;;;;10.18;5.18;;;-0.40;99.90;;;;;;5047998;28;20313;-49
2023/02/28 02:56:46;;;;;;;9.55;4.97;;;-0.40;99.90;;;;;;5048518;28;20120;-47
2023/02/28 02:59:15;;;;;;;10.02;5.60;;;-0.50;99.90;;;;;;5048307;28;20545;-48
2023/02/28 03:01:41;;;;;;;11.00;5.80;;;-0.50;99.90;;;;;;5047215;28;20064;-48
2023/02/28 03:04:16;;;;;;;15.55;6.53;;;-0.50;99.90;;;;;;5047926;28;20064;-40
2023/02/28 03:06:42;;;;;;;12.98;6.32;;;-0.40;99.90;;;;;;5048433;28;20378;-40
2023/02/28 03:09:07;;;;;;;9.35;4.97;;;-0.40;99.90;;;;;;5046853;28;20029;-41
2023/02/28 03:11:36;;;;;;;11.02;5.28;;;-0.40;99.90;;;;;;5048591;28;20029;-47
2023/02/28 03:14:21;;;;;;;11.57;5.45;;;-0.50;99.90;;;;;;5047659;28;20029;-47
2023/02/28 03:17:28;;;;;;;11.45;5.93;;;-0.50;99.90;;;;;;5045025;28;20021;-40
2023/02/28 03:20:15;;;;;;;11.15;6.20;;;-0.40;99.90;;;;;;5031838;28;20127;-40
2023/02/28 03:23:14;;;;;;;10.70;6.20;;;-0.40;99.90;;;;;;5028318;28;20107;-41
2023/02/28 03:25:55;;;;;;;10.75;6.60;;;-0.40;99.90;;;;;;4995406;28;20117;-41
2023/02/28 03:28:40;;;;;;;10.32;6.03;;;-0.50;99.90;;;;;;5034920;28;20129;-40
2023/02/28 03:31:20;;;;;;;10.65;6.18;;;-0.40;99.90;;;;;;5045025;28;20029;-40
2023/02/28 03:33:54;;;;;;;8.77;5.90;;;-0.50;99.90;;;;;;5045959;28;20021;-47
2023/02/28 03:36:29;;;;;;;13.95;6.82;;;-0.50;99.90;;;;;;5044594;28;20082;-47
2023/02/28 03:39:02;;;;;;;14.25;5.90;;;-0.50;99.90;;;;;;5045122;28;20045;-40
2023/02/28 03:41:43;;;;;;;12.05;6.07;;;-0.50;99.90;;;;;;5042770;28;20364;-40
2023/02/28 03:44:08;;;;;;;;;;;-0.60;99.90;;;;;;5043506;28;20036;-41
2023/02/28 03:46:39;;;;;;;10.07;5.57;;;-0.60;99.90;;;;;;5051070;28;20027;-40
2023/02/28 03:49:16;;;;;;;15.55;6.50;;;-0.60;99.90;;;;;;5049414;28;20017;-40
2023/02/28 03:51:45;;;;;;;13.18;8.00;;;-0.70;99.90;;;;;;5048527;28;20033;-40
2023/02/28 03:54:19;;;;;;;20.40;9.57;;;-0.70;99.90;;;;;;5050940;28;20110;-40
2023/02/28 03:56:54;;;;;;;17.17;9.85;;;-0.80;99.90;;;;;;5048920;28;20025;-39
2023/02/28 03:59:28;;;;;;;16.55;9.90;;;-0.80;99.90;;;;;;5051128;28;20021;-39
2023/02/28 04:01:55;;;;;;;13.32;7.88;;;-0.90;99.90;;;;;;5050919;28;20049;-40
2023/02/28 04:04:21;;;;;;;15.73;8.57;;;-0.90;99.90;;;;;;5051277;28;20024;-40
2023/02/28 04:06:50;;;;;;;11.88;7.40;;;-0.90;99.90;;;;;;5050914;28;20029;-40
2023/02/28 04:09:15;;;;;;;12.75;7.53;;;-1.00;99.90;;;;;;5051017;28;20056;-40
2023/02/28 04:11:51;;;;;;;13.32;6.72;;;-1.00;99.90;;;;;;5050912;28;20025;-40
2023/02/28 04:14:18;;;;;;;16.70;7.40;;;-1.00;99.90;;;;;;5049861;28;20025;-40
2023/02/28 04:16:44;;;;;;;10.65;6.20;;;-1.10;99.90;;;;;;5051647;28;20017;-40
2023/02/28 04:19:11;;;;;;;11.05;6.25;;;-1.20;99.90;;;;;;5049894;28;20386;-40
2023/02/28 04:21:40;;;;;;;14.07;6.55;;;-1.20;99.90;;;;;;5051000;28;20486;-41
2023/02/28 04:24:07;;;;;;;15.57;7.38;;;-1.20;99.90;;;;;;5051020;28;20100;-40
2023/02/28 04:26:35;;;;;;;12.95;6.30;;;-1.20;99.90;;;;;;5048927;28;20049;-40
2023/02/28 04:29:03;;;;;;;10.02;5.50;;;-1.20;99.90;;;;;;5050079;28;20052;-39
2023/02/28 04:31:28;;;;;;;12.40;5.63;;;-1.10;99.90;;;;;;5051137;28;20025;-39
2023/02/28 04:33:54;;;;;;;15.45;6.15;;;-1.10;99.90;;;;;;5050660;28;20036;-41
2023/02/28 04:36:20;;;;;;;14.18;6.68;;;-1.10;99.90;;;;;;5051112;28;20379;-40
2023/02/28 04:38:46;;;;;;;11.93;6.43;;;-1.10;99.90;;;;;;5049703;28;20028;-40
2023/02/28 04:41:13;;;;;;;13.68;5.95;;;-1.00;99.90;;;;;;5050499;28;20111;-40
2023/02/28 04:43:38;;;;;;;14.10;7.35;;;-1.00;99.90;;;;;;5050382;28;20023;-40
2023/02/28 04:46:05;;;;;;;14.45;6.32;;;-1.00;99.90;;;;;;5051028;28;20124;-40
2023/02/28 04:48:33;;;;;;;15.88;8.95;;;-1.00;99.90;;;;;;5049857;28;20402;-40
2023/02/28 04:51:07;;;;;;;11.05;6.88;;;-1.10;99.90;;;;;;5050628;28;20025;-41
2023/02/28 04:53:32;;;;;;;11.38;6.68;;;-1.10;99.90;;;;;;5050222;28;20545;-40
2023/02/28 04:55:58;;;;;;;13.30;6.72;;;-1.10;99.90;;;;;;5050121;28;20025;-40
2023/02/28 04:58:24;;;;;;;13.65;6.35;;;-1.10;99.90;;;;;;5049676;28;20066;-41
2023/02/28 05:00:51;;;;;;;13.40;6.70;;;-1.20;99.90;;;;;;5050253;28;20021;-41
2023/02/28 05:03:16;;;;;;;10.57;6.13;;;-1.20;99.90;;;;;;5047938;28;20514;-42
2023/02/28 05:05:42;;;;;;;14.88;5.82;;;-1.20;99.90;;;;;;5049940;28;20132;-41
2023/02/28 05:08:07;;;;;;;10.48;6.18;;;-1.20;99.90;;;;;;5050232;28;20080;-40
2023/02/28 05:10:33;;;;;;;10.80;6.30;;;-1.30;99.90;;;;;;5051512;28;20435;-43
2023/02/28 05:12:59;;;;;;;10.98;6.13;;;-1.30;99.90;;;;;;5051501;28;20431;-43
2023/02/28 05:15:24;;;;;;;10.00;6.25;;;-1.40;99.90;;;;;;5051938;28;20032;-41
2023/02/28 05:17:50;;;;;;;11.55;7.25;;;-1.30;99.90;;;;;;5051703;28;20347;-42
2023/02/28 05:20:16;;;;;;;10.43;6.47;;;-1.30;99.90;;;;;;5051721;28;20057;-41
2023/02/28 05:22:43;;;;;;;11.02;7.15;;;-1.30;99.90;;;;;;5051743;28;20025;-42
2023/02/28 05:25:13;;;;;;;9.80;6.53;;;-1.30;99.90;;;;;;5051279;28;20466;-41
2023/02/28 05:27:38;;;;;;;12.95;6.72;;;-1.30;99.90;;;;;;5051868;28;20021;-41
2023/02/28 05:30:06;;;;;;;13.52;6.78;;;-1.30;99.90;;;;;;5050815;28;20639;-41
2023/02/28 05:32:31;;;;;;;11.10;6.50;;;-1.40;99.90;;;;;;5050041;28;20025;-42
2023/02/28 05:34:57;;;;;;;10.45;6.47;;;-1.40;99.90;;;;;;5051366;28;20711;-42
2023/02/28 05:37:22;;;;;;;13.00;7.38;;;-1.40;99.90;;;;;;5051832;28;20028;-41
2023/02/28 05:39:48;;;;;;;11.43;6.68;;;-1.40;99.90;;;;;;5051747;28;20028;-41
2023/02/28 05:42:13;;;;;;;11.75;6.85;;;-1.40;99.90;;;;;;5050153;28;20029;-41
2023/02/28 05:44:39;;;;;;;10.55;6.15;;;-1.50;99.90;;;;;;5050942;28;20108;-41
2023/02/28 05:47:04;;;;;;;10.82;6.65;;;-1.60;99.90;;;;;;5050774;28;20441;-41
2023/02/28 05:49:30;;;;;;;14.27;6.78;;;-1.60;99.90;;;;;;5050872;28;20047;-41
2023/02/28 05:51:55;;;;;;;12.85;6.60;;;-1.60;99.90;;;;;;5050422;28;20078;-41
2023/02/28 05:54:21;;;;;;;10.85;5.70;;;-1.60;99.90;;;;;;5050036;28;20083;-41
2023/02/28 05:56:47;;;;;;;12.60;6.82;;;-1.70;99.90;;;;;;5050722;28;20045;-41
2023/02/28 05:59:13;;;;;;;16.08;7.20;;;-1.70;99.90;;;;;;5050070;28;20096;-41
2023/02/28 06:01:51;;;;;;;13.65;6.88;;;-1.70;99.90;;;;;;5050465;28;20071;-40
2023/02/28 06:04:19;;;;;;;12.90;6.57;;;-1.70;99.90;;;;;;5050313;28;20086;-41
2023/02/28 06:06:46;;;;;;;9.73;5.78;;;-1.60;99.90;;;;;;5050776;28;20045;-41
2023/02/28 06:09:12;;;;;;;11.18;6.85;;;-1.60;99.90;;;;;;5049373;28;20029;-41
2023/02/28 06:11:38;;;;;;;9.43;5.78;;;-1.70;99.90;;;;;;5050275;28;20094;-41
2023/02/28 06:14:03;;;;;;;13.23;6.88;;;-1.70;99.90;;;;;;5050143;28;20534;-41
2023/02/28 06:16:30;;;;;;;15.20;6.70;;;-1.70;99.90;;;;;;5049480;28;20020;-41
2023/02/28 06:19:02;;;;;;;12.52;6.53;;;-1.70;99.90;;;;;;5048981;28;20072;-40
2023/02/28 06:21:28;;;;;;;11.98;6.10;;;-1.70;99.90;;;;;;5046736;28;20032;-41
2023/02/28 06:23:55;;;;;;;10.20;6.32;;;-1.60;99.90;;;;;;5060196;28;20538;-40
2023/02/28 06:26:20;;;;;;;14.45;7.20;;;-1.70;99.90;;;;;;5069963;28;20108;-40
2023/02/28 06:28:46;;;;;;;14.00;7.75;;;-1.70;99.90;;;;;;5050327;28;20096;-40
2023/02/28 06:31:15;;;;;;;11.38;7.10;;;-1.70;99.90;;;;;;5050167;28;20017;-40
2023/02/28 06:33:42;;;;;;;12.63;7.10;;;-1.70;99.90;;;;;;5048774;28;20488;-39
2023/02/28 06:36:09;;;;;;;13.82;6.95;;;-1.80;99.90;;;;;;5048842;28;20032;-40
2023/02/28 06:38:35;;;;;;;13.20;7.50;;;-1.80;99.90;;;;;;5059032;28;20024;-39
2023/02/28 06:41:01;;;;;;;12.23;6.88;;;-1.80;99.90;;;;;;5048601;28;20028;-39
2023/02/28 06:43:32;;;;;;;11.15;6.18;;;-1.70;99.90;;;;;;5048416;28;20414;-39
2023/02/28 06:45:59;;;;;;;14.50;7.38;;;-1.70;99.90;;;;;;5047535;28;20037;-39
2023/02/28 06:48:26;;;;;;;13.68;7.53;;;-1.70;99.90;;;;;;5048013;28;20091;-39
2023/02/28 06:50:52;;;;;;;12.65;6.95;;;-1.70;99.90;;;;;;5048516;28;20037;-39
2023/02/28 06:53:18;;;;;;;10.48;5.95;;;-1.70;99.90;;;;;;5047420;28;20029;-39
2023/02/28 06:55:43;;;;;;;12.10;6.85;;;-1.60;99.90;;;;;;5047384;28;20078;-39
2023/02/28 06:58:15;;;;;;;11.18;6.80;;;-1.60;99.90;;;;;;5048158;28;20025;-39
2023/02/28 07:00:42;;;;;;;13.15;7.13;;;-1.50;99.90;;;;;;5046722;28;20470;-39
2023/02/28 07:03:08;;;;;;;13.50;6.47;;;-1.50;99.90;;;;;;5047324;28;20092;-40
2023/02/28 07:05:35;;;;;;;10.63;6.20;;;-1.40;99.90;;;;;;5047537;28;20061;-40
2023/02/28 07:08:01;;;;;;;11.93;6.07;;;-1.50;99.90;;;;;;5039144;28;20028;-40
2023/02/28 07:10:27;;;;;;;13.00;5.90;;;-1.40;99.90;;;;;;5048602;28;20032;-39
2023/02/28 07:12:52;;;;;;;10.93;5.70;;;-1.40;99.90;;;;;;5046735;28;20509;-40
2023/02/28 07:15:18;;;;;;;9.35;5.25;;;-1.30;99.90;;;;;;5048459;28;20086;-40
2023/02/28 07:17:43;;;;;;;10.93;6.43;;;-1.30;99.90;;;;;;5048025;28;20024;-40
2023/02/28 07:20:09;;;;;;;22.00;6.22;;;-1.30;99.90;;;;;;5048928;28;20025;-40
2023/02/28 07:22:35;;;;;;;10.98;5.68;;;-1.20;99.90;;;;;;5051833;28;20063;-40
2023/02/28 07:25:00;;;;;;;10.50;5.65;;;-1.20;99.90;;;;;;5050842;28;20064;-40
2023/02/28 07:27:26;;;;;;;11.80;6.72;;;-1.10;99.90;;;;;;5066941;28;20088;-40
2023/02/28 07:29:52;;;;;;;11.02;5.95;;;-1.10;99.90;;;;;;5054522;28;20060;-40
2023/02/28 07:32:18;;;;;;;9.70;5.97;;;-1.10;99.90;;;;;;5050318;28;20536;-40
2023/02/28 07:34:44;;;;;;;9.50;5.63;;;-1.10;99.90;;;;;;5050469;28;20078;-40
2023/02/28 07:37:10;;;;;;;10.27;5.47;;;-1.00;99.90;;;;;;5050617;28;20025;-40
2023/02/28 07:39:35;;;;;;;11.98;6.35;;;-1.00;99.90;;;;;;5050629;28;20017;-40
2023/02/28 07:42:04;;;;;;;10.02;6.88;;;-0.90;99.90;;;;;;5051712;28;20063;-43
2023/02/28 07:44:30;;;;;;;9.88;5.80;;;-0.90;99.90;;;;;;5051779;28;20084;-40
2023/02/28 07:46:55;;;;;;;11.10;6.18;;;-0.80;99.90;;;;;;5051162;28;20179;-40
2023/02/28 07:49:21;;;;;;;10.57;5.93;;;-0.80;99.90;;;;;;5051636;28;20385;-40
2023/02/28 07:51:47;;;;;;;12.32;5.55;;;-0.70;99.90;;;;;;5050234;28;20025;-40
2023/02/28 07:54:12;;;;;;;8.20;5.10;;;-0.70;99.90;;;;;;5051056;28;20082;-40
2023/02/28 07:56:38;;;;;;;9.90;5.47;;;-0.60;99.90;;;;;;5051448;28;20025;-40
2023/02/28 07:59:03;;;;;;;10.82;5.13;;;-0.60;99.90;;;;;;5050480;28;20033;-39
2023/02/28 08:01:29;;;;;;;12.35;5.07;;;-0.50;99.90;;;;;;5051276;28;20377;-40
2023/02/28 08:03:56;;;;;;;7.30;4.35;;;-0.40;99.90;;;;;;5050737;28;20028;-40
2023/02/28 08:06:23;;;;;;;9.18;4.93;;;-0.30;99.90;;;;;;5049948;28;20066;-40
2023/02/28 08:08:49;;;;;;;9.45;4.75;;;-0.20;99.90;;;;;;5050851;28;20040;-40
2023/02/28 08:11:16;;;;;;;6.88;4.43;;;-0.10;99.90;;;;;;5050368;28;20108;-40
2023/02/28 08:13:43;;;;;;;7.53;4.47;;;-0.10;99.90;;;;;;5049441;28;20017;-40
2023/02/28 08:16:10;;;;;;;7.35;4.40;;;0.00;99.90;;;;;;5050663;28;20048;-40
2023/02/28 08:18:35;;;;;;;8.02;4.85;;;0.00;99.90;;;;;;5051116;28;20021;-40
2023/02/28 08:21:07;;;;;;;8.20;5.03;;;0.10;99.90;;;;;;5050158;28;20482;-40
2023/02/28 08:23:33;;;;;;;8.55;4.90;;;0.20;99.90;;;;;;5050489;28;20017;-40
2023/02/28 08:25:59;;;;;;;6.85;4.45;;;0.30;99.90;;;;;;5050582;28;20021;-40
2023/02/28 08:28:25;;;;;;;8.77;5.30;;;0.30;99.90;;;;;;5045296;28;20020;-40
2023/02/28 08:30:50;;;;;;;8.70;4.72;;;0.40;99.90;;;;;;5050127;28;20032;-40
2023/02/28 08:33:15;;;;;;;6.57;4.25;;;0.50;99.90;;;;;;5050067;28;20029;-40
2023/02/28 08:35:41;;;;;;;13.05;5.22;;;0.60;99.90;;;;;;5050601;28;20036;-40
2023/02/28 08:38:06;;;;;;;8.80;4.60;;;0.70;99.90;;;;;;5050744;28;20051;-39
2023/02/28 08:40:32;;;;;;;9.07;4.43;;;0.70;99.90;;;;;;5050913;28;20029;-40
2023/02/28 08:42:59;;;;;;;6.70;4.43;;;0.80;99.90;;;;;;5050117;28;20104;-40
2023/02/28 08:45:25;;;;;;;8.55;4.60;;;0.90;99.90;;;;;;5050321;28;20024;-40
2023/02/28 08:47:52;;;;;;;10.23;5.65;;;1.00;99.90;;;;;;5050779;28;20033;-40
2023/02/28 08:50:18;;;;;;;7.22;4.80;;;1.10;99.90;;;;;;5050755;28;20505;-40
2023/02/28 08:52:43;;;;;;;5.82;4.25;;;1.20;99.90;;;;;;5050351;28;20040;-40
2023/02/28 08:55:10;;;;;;;8.15;4.45;;;1.30;99.90;;;;;;5050469;28;20036;-40
2023/02/28 08:57:36;;;;;;;8.45;5.10;;;1.40;99.90;;;;;;5050721;28;20381;-40
2023/02/28 09:00:04;;;;;;;10.68;4.97;;;1.50;99.90;;;;;;5050793;28;20017;-40
2023/02/28 09:02:32;;;;;;;8.18;5.07;;;1.60;99.90;;;;;;5050476;28;20187;-40
2023/02/28 09:04:58;;;;;;;9.55;6.03;;;1.70;99.90;;;;;;5049945;28;20471;-40
2023/02/28 09:07:24;;;;;;;16.00;6.00;;;1.80;99.90;;;;;;5050351;28;20064;-40
2023/02/28 09:09:57;;;;;;;9.48;5.68;;;2.00;99.90;;;;;;5045358;28;20028;-40
2023/02/28 09:12:24;;;;;;;14.05;6.55;;;2.10;99.90;;;;;;5048553;28;20035;-40
2023/02/28 09:14:50;;;;;;;12.85;5.88;;;2.40;99.90;;;;;;5050020;28;20056;-41
2023/02/28 09:17:16;;;;;;;9.57;6.25;;;2.70;99.90;;;;;;5048123;28;20458;-40
2023/02/28 09:19:42;;;;;;;13.90;5.55;;;3.90;99.90;;;;;;5048786;28;20013;-40
2023/02/28 09:22:08;;;;;;;7.68;5.32;;;6.10;99.90;;;;;;5049671;28;20029;-42
2023/02/28 09:24:33;;;;;;;8.23;5.78;;;8.60;99.90;;;;;;5049526;28;20547;-39
2023/02/28 09:26:59;;;;;;;8.10;5.57;;;10.30;94.50;;;;;;5049439;28;20029;-40
2023/02/28 09:29:24;;;;;;;7.65;5.22;;;12.50;88.80;;;;;;5049784;28;20362;-40
2023/02/28 09:31:50;;;;;;;7.03;4.90;;;14.00;78.80;;;;;;5045435;28;20033;-39
2023/02/28 09:34:17;;;;;;;9.23;4.57;;;15.00;70.90;;;;;;5049322;28;20111;-40
2023/02/28 09:36:42;;;;;;;7.90;5.28;;;15.60;64.80;;;;;;5049663;28;20071;-40
2023/02/28 09:39:09;;;;;;;7.97;5.68;;;16.40;62.80;;;;;;5049486;28;20048;-42
2023/02/28 09:41:49;;;;;;;7.43;4.78;;;16.60;59.30;;;;;;5049914;28;20025;-39
2023/02/28 09:44:39;;;;;;;7.22;4.75;;;17.40;59.00;;;;;;5048995;28;20025;-40
2023/02/28 09:47:34;;;;;;;6.93;4.95;;;18.30;57.10;;;;;;5049417;28;20029;-41
2023/02/28 09:50:11;;;;;;;6.65;4.70;;;19.00;53.40;;;;;;5049534;28;20583;-44
2023/02/28 09:52:37;;;;;;;6.28;5.38;;;19.00;54.30;;;;;;5047918;28;20033;-41
2023/02/28 09:55:27;;;;;;;7.25;4.75;;;19.10;52.60;;;;;;5048831;28;20381;-42
2023/02/28 09:57:55;;;;;;;;;;;20.00;52.30;;;;;;5045743;28;20041;-43
2023/02/28 10:00:40;;;;;;;6.05;5.22;;;20.20;50.50;;;;;;5050890;28;20140;-45
2023/02/28 10:03:51;;;;;;;5.97;4.18;;;20.40;50.60;;;;;;5068591;28;20025;-42
2023/02/28 10:06:22;;;;;;;5.80;3.83;;;21.20;48.70;;;;;;5014143;28;20040;-41
2023/02/28 10:09:01;;;;;;;7.00;3.80;;;21.20;47.80;;;;;;5055285;28;20017;-41
2023/02/28 10:11:28;;;;;;;8.10;3.75;;;21.20;47.60;;;;;;5047243;28;20098;-42
2023/02/28 10:14:01;;;;;;;5.28;3.70;;;21.60;48.20;;;;;;5048128;28;20025;-42
2023/02/28 10:16:30;;;;;;;7.20;3.90;;;21.60;47.70;;;;;;5045794;28;20017;-42
2023/02/28 10:19:20;;;;;;;4.05;3.42;;;21.50;46.40;;;;;;5048161;28;20336;-43
2023/02/28 10:21:54;;;;;;;;;;;21.90;46.60;;;;;;5043127;28;20021;-42
2023/02/28 10:24:34;;;;;;;5.13;3.35;;;21.80;46.10;;;;;;5045675;28;19912;-41
2023/02/28 10:27:11;;;;;;;6.22;4.20;;;22.40;44.90;;;;;;5046051;28;20117;-40
2023/02/28 10:29:48;;;;;;;4.28;3.88;;;22.10;44.80;;;;;;5044901;28;20429;-44
2023/02/28 10:32:24;;;;;;;5.60;4.22;;;21.70;44.50;;;;;;5048796;28;20089;-41
2023/02/28 10:34:57;;;;;;;5.05;4.03;;;22.10;43.70;;;;;;5049673;28;20027;-42
2023/02/28 10:37:23;;;;;;;5.70;3.60;;;22.40;43.10;;;;;;5049925;28;20191;-43
2023/02/28 10:39:48;;;;;;;5.00;3.63;;;22.00;43.80;;;;;;5047312;28;20140;-40
2023/02/28 10:42:26;;;;;;;5.95;3.92;;;22.90;42.60;;;;;;5048988;28;20075;-44
2023/02/28 10:45:15;;;;;;;4.53;3.72;;;21.90;44.50;;;;;;5049692;28;20044;-42
2023/02/28 10:47:51;;;;;;;7.00;3.88;;;21.70;45.00;;;;;;5049816;28;20115;-41
2023/02/28 10:50:30;;;;;;;4.07;3.25;;;21.50;44.10;;;;;;5050124;28;20576;-44
2023/02/28 10:53:28;;;;;;;5.27;3.27;;;21.90;43.50;;;;;;5049531;28;20029;-41
2023/02/28 10:56:04;;;;;;;5.93;3.88;;;21.20;41.70;;;;;;5055828;28;20174;-41
2023/02/28 10:58:32;;;;;;;4.80;3.55;;;21.60;43.40;;;;;;5055042;28;20025;-41
2023/02/28 11:00:59;;;;;;;4.70;3.55;;;21.30;42.00;;;;;;5055152;28;20390;-42
2023/02/28 11:03:30;;;;;;;4.10;3.25;;;20.40;43.90;;;;;;5054522;28;20033;-41
2023/02/28 11:05:56;;;;;;;5.38;3.45;;;19.50;43.90;;;;;;5053527;28;20060;-40
2023/02/28 11:08:22;;;;;;;5.57;3.88;;;19.00;45.50;;;;;;5053737;28;20035;-40
2023/02/28 11:11:00;;;;;;;4.50;3.38;;;18.50;46.20;;;;;;5053964;28;20025;-40
2023/02/28 11:13:32;;;;;;;10.80;4.45;;;17.70;46.20;;;;;;5053258;28;20017;-40
2023/02/28 11:16:00;;;;;;;6.82;4.30;;;16.30;47.70;;;;;;5052358;28;20079;-40
2023/02/28 11:18:37;;;;;;;4.63;2.80;;;16.10;48.40;;;;;;5054122;28;20369;-41
2023/02/28 11:21:03;;;;;;;4.10;2.75;;;15.00;48.30;;;;;;5055503;28;20031;-41
2023/02/28 11:23:32;;;;;;;3.72;2.47;;;15.60;48.00;;;;;;5054076;28;20024;-42
2023/02/28 11:26:02;;;;;;;6.40;2.92;;;16.50;47.00;;;;;;5053769;28;20035;-41
2023/02/28 11:28:27;;;;;;;6.75;3.20;;;16.80;47.60;;;;;;5054998;28;20472;-42
2023/02/28 11:31:01;;;;;;;4.90;3.15;;;17.70;48.40;;;;;;5054878;28;20116;-42
2023/02/28 11:33:44;;;;;;;5.28;3.30;;;18.40;45.20;;;;;;5054125;28;20025;-41
2023/02/28 11:36:31;;;;;;;3.75;2.58;;;18.90;43.50;;;;;;5054444;28;20092;-42
2023/02/28 11:39:02;;;;;;;3.80;2.55;;;20.30;42.90;;;;;;5055381;28;20028;-43
2023/02/28 11:41:43;;;;;;;3.45;2.28;;;20.70;41.90;;;;;;5050059;28;20549;-42
2023/02/28 11:44:16;;;;;;;2.30;2.10;;;21.40;40.50;;;;;;5034678;28;20025;-44
2023/02/28 11:46:48;;;;;;;3.45;2.25;;;21.30;40.70;;;;;;5041215;28;20735;-44
2023/02/28 11:49:38;;;;;;;2.67;2.20;;;21.10;39.80;;;;;;5069517;28;20105;-41
2023/02/28 11:52:40;;;;;;;4.45;2.13;;;20.80;40.40;;;;;;5073281;28;20116;-42
2023/02/28 11:55:38;;;;;;;3.28;2.38;;;21.00;40.70;;;;;;5074535;28;20028;-42
2023/02/28 11:58:41;;;;;;;3.25;2.38;;;21.40;39.50;;;;;;5058278;28;20123;-44
2023/02/28 12:01:31;;;;;;;2.50;2.30;;;21.50;40.00;;;;;;5053825;28;20032;-39
2023/02/28 12:04:22;;;;;;;4.18;2.13;;;20.40;42.50;;;;;;5053293;28;20029;-43
2023/02/28 12:07:15;;;;;;;4.20;3.13;;;19.60;41.70;;;;;;5046681;28;20033;-40
2023/02/28 12:09:56;;;;;;;5.53;2.83;;;19.20;42.30;;;;;;5047874;28;20059;-41
2023/02/28 12:12:42;;;;;;;2.75;2.42;;;19.70;42.80;;;;;;5048421;28;20083;-42
2023/02/28 12:15:14;;;;;;;5.00;2.42;;;19.60;43.30;;;;;;5047881;28;20032;-40
2023/02/28 12:17:52;;;;;;;4.53;3.05;;;19.40;42.00;;;;;;5045688;28;20317;-40
2023/02/28 12:20:36;;;;;;;4.15;3.03;;;19.50;42.10;;;;;;5050919;28;20025;-41
2023/02/28 12:23:21;;;;;;;5.30;3.80;;;18.70;43.30;;;;;;5047465;28;20025;-40
2023/02/28 12:25:58;;;;;;;6.28;3.33;;;18.90;43.70;;;;;;5046809;28;20605;-40
2023/02/28 12:28:31;;;;;;;4.28;3.15;;;18.00;45.00;;;;;;5049925;28;20129;-42
2023/02/28 12:31:31;;;;;;;4.18;3.08;;;17.90;45.10;;;;;;5049641;28;20366;-41
2023/02/28 12:34:02;;;;;;;4.93;3.58;;;16.60;46.70;;;;;;5016984;28;20107;-40
2023/02/28 12:36:28;;;;;;;4.00;2.83;;;16.30;46.20;;;;;;5049178;28;20421;-40
2023/02/28 12:39:00;;;;;;;6.28;3.10;;;16.50;48.70;;;;;;5050631;28;20036;-41
2023/02/28 12:42:02;;;;;;;4.32;3.40;;;16.50;47.00;;;;;;5050425;28;20048;-42
2023/02/28 12:44:32;;;;;;;3.45;3.08;;;16.20;47.10;;;;;;5048636;28;20029;-41
2023/02/28 12:47:04;;;;;;;4.40;3.20;;;16.10;46.90;;;;;;5048744;28;20094;-40
2023/02/28 12:49:42;;;;;;;3.38;2.65;;;15.40;47.40;;;;;;5049761;28;20028;-42
2023/02/28 12:52:10;;;;;;;5.45;2.90;;;15.20;51.20;;;;;;5050220;28;20064;-41
2023/02/28 12:54:57;;;;;;;5.13;3.38;;;14.80;51.30;;;;;;5049455;28;20060;-41
2023/02/28 12:57:36;;;;;;;4.43;3.10;;;14.40;50.30;;;;;;5054341;28;20115;-41
2023/02/28 13:00:12;;;;;;;6.20;2.70;;;14.50;51.60;;;;;;5051583;28;20025;-40
2023/02/28 13:02:41;;;;;;;6.30;3.10;;;14.20;51.10;;;;;;5053207;28;20025;-46
2023/02/28 13:05:12;;;;;;;6.70;3.10;;;14.00;50.80;;;;;;5046885;28;20459;-47
2023/02/28 13:08:06;;;;;;;5.05;3.25;;;13.50;51.30;;;;;;5050308;28;20482;-46